Flight Track Log - Related Links

Times and Time Zones

All times are in EDT time to prevent confusion due to time zone crossing. See the N53NW flight status page for this flight to view local times or setup timezone preferences in your user account.

Time Position Orientation Groundspeed Altitude Reporting Facility
EDT Latitude Longitude Course Direction KTS MPH feet Rate Location/Type
Fri 12:34:44 PM 39.1500 -76.6333 211° Southwest 193 222 1,800  Level Potomac TRACON
Fri 12:35:38 PM 39.1167 -76.6833 229° Southwest 257 296 4,600 3,526 Climbing Potomac TRACON
Fri 12:36:38 PM 39.1333 -76.7500 288° West 243 280 8,500 3,600 Climbing Potomac TRACON
Fri 12:37:38 PM 39.1667 -76.8333 297° West 240 276 11,800 3,095 Climbing Potomac TRACON
Fri 12:38:44 PM 39.2000 -76.9167 297° West 245 282 15,000 2,457 Climbing Potomac TRACON
Fri 12:39:45 PM 39.2167 -77.0167 282° West 255 293 17,000 1,148 Climbing Potomac TRACON
Fri 12:40:00 PM 39.0421 -77.2765 211° Southwest  Level FlightAware Approximate
Fri 12:40:39 PM 39.2000 -77.1167 258° West 326 375 17,200  Level Potomac TRACON
Fri 12:41:39 PM 39.1333 -77.1833 218° Southwest 317 365 19,600 2,400 Climbing Potomac TRACON
Fri 12:42:34 PM 39.0667 -77.2167 201° Southwest 289 333 21,800 1,774 Climbing Potomac TRACON
Fri 12:43:34 PM 39.0000 -77.2500 201° Southwest 304 350 23,000 600 Climbing Potomac TRACON
Fri 12:44:34 PM 38.9000 -77.3000 201° Southwest 364 419 23,000 427 Level Potomac TRACON
Fri 12:47:05 PM 38.6828 -77.4161 203° Southwest 373 429 24,500 995 Climbing Washington Center
Fri 12:48:05 PM 38.6047 -77.4725 209° Southwest 353 406 26,500 1,271 Climbing Washington Center
Fri 12:49:03 PM 38.5614 -77.5725 241° Southwest 318 366 27,000 403 Climbing Washington Center
Fri 12:50:04 PM 38.5094 -77.6903 241° Southwest 330 380 27,300 992 Climbing Washington Center
Fri 12:51:04 PM 38.4658 -77.7978 243° Southwest 344 396 29,000 1,240 Climbing Washington Center
Fri 12:52:05 PM 38.4322 -77.9136 250° West 349 402 29,800 1,240 Climbing Washington Center
Fri 12:53:05 PM 38.4092 -78.0242 255° West 344 396 31,500 1,750 Climbing Washington Center
Fri 12:54:05 PM 38.3883 -78.1319 256° West 325 374 33,300 1,627 Climbing Washington Center
Fri 12:55:03 PM 38.3528 -78.2261 244° Southwest 311 358 34,700 1,322 Climbing Washington Center
Fri 12:56:03 PM 38.3053 -78.3039 232° Southwest 292 336 35,900 645 Climbing Washington Center
Fri 12:57:04 PM 38.2492 -78.3917 231° Southwest 303 349 36,000 645 Climbing Washington Center
Fri 12:58:04 PM 38.1950 -78.4769 231° Southwest 318 366 37,200 1,289 Climbing Washington Center
Fri 12:59:05 PM 38.1614 -78.5681 245° Southwest 308 354 38,600 1,109 Climbing Washington Center
Fri 01:00:03 PM 38.1175 -78.6558 238° Southwest 296 341 39,400 706 Climbing Washington Center
Fri 01:01:04 PM 38.0756 -78.7492 240° Southwest 296 341 40,000 300 Climbing Washington Center
Fri 01:02:03 PM 38.0311 -78.8503 241° Southwest 310 357 40,000  Level Washington Center
Fri 01:03:03 PM 37.9886 -78.9483 241° Southwest 337 388 40,000  Level Washington Center
Fri 01:04:04 PM 37.9417 -79.0569 241° Southwest 348 400 40,000  Level Washington Center
Fri 01:05:05 PM 37.8969 -79.1603 241° Southwest 348 400 40,000  Level Washington Center
Fri 01:06:06 PM 37.8456 -79.2786 241° Southwest 348 400 40,000  Level Washington Center
Fri 01:07:03 PM 37.8003 -79.3869 242° Southwest 348 400 40,000  Level Washington Center
Fri 01:08:04 PM 37.7531 -79.4975 242° Southwest 348 400 40,000  Level Washington Center
Fri 01:09:06 PM 37.7122 -79.5978 243° Southwest 353 406 40,000  Level Washington Center
Fri 01:10:03 PM 37.6542 -79.7128 238° Southwest 353 406 40,000  Level Washington Center
Fri 01:11:04 PM 37.6111 -79.8100 241° Southwest 353 406 40,000  Level Washington Center
Fri 01:12:05 PM 37.5564 -79.9353 241° Southwest 365 420 40,000  Level Washington Center
Fri 01:14:21 PM 37.4447 -80.1808 240° Southwest 367 422 40,000  Level Atlanta Center
Fri 01:15:21 PM 37.3939 -80.2881 239° Southwest 367 422 40,000  Level Atlanta Center
Fri 01:16:21 PM 37.3450 -80.3947 240° Southwest 367 422 40,000  Level Atlanta Center
Fri 01:17:21 PM 37.2981 -80.4986 240° Southwest 367 422 40,000  Level Atlanta Center
Fri 01:18:21 PM 37.2550 -80.5969 241° Southwest 367 422 40,000  Level Atlanta Center
Fri 01:19:21 PM 37.2058 -80.7033 240° Southwest 367 422 40,000  Level Atlanta Center
Fri 01:20:21 PM 37.1564 -80.8097 240° Southwest 367 422 40,000  Level Atlanta Center
Fri 01:21:21 PM 37.1033 -80.9289 241° Southwest 367 422 40,000  Level Atlanta Center
Fri 01:22:21 PM 37.0517 -81.0350 239° Southwest 367 422 40,000  Level Atlanta Center
Fri 01:23:21 PM 37.0022 -81.1433 240° Southwest 367 422 40,000  Level Atlanta Center
Fri 01:24:20 PM 36.9525 -81.2492 240° Southwest 367 422 40,000  Level Atlanta Center
Fri 01:25:21 PM 36.9108 -81.3492 242° Southwest 367 422 40,000  Level Atlanta Center
Fri 01:26:21 PM 36.8569 -81.4522 237° Southwest 367 422 40,000  Level Atlanta Center
Fri 01:27:21 PM 36.8092 -81.5681 243° Southwest 367 422 40,000  Level Atlanta Center
Fri 01:28:21 PM 36.7572 -81.6783 240° Southwest 359 413 40,000  Level Atlanta Center
Fri 01:29:21 PM 36.7069 -81.7861 240° Southwest 359 413 40,000  Level Atlanta Center
Fri 01:30:21 PM 36.6567 -81.8908 239° Southwest 364 419 40,000  Level Atlanta Center
Fri 01:31:21 PM 36.6044 -82.0008 239° Southwest 369 425 40,000  Level Atlanta Center
Fri 01:32:21 PM 36.5519 -82.1108 239° Southwest 369 425 40,000  Level Atlanta Center
Fri 01:33:21 PM 36.5014 -82.2181 240° Southwest 363 418 40,000  Level Atlanta Center
Fri 01:34:21 PM 36.4467 -82.3275 238° Southwest 369 425 40,000  Level Atlanta Center
Fri 01:35:21 PM 36.3961 -82.4369 240° Southwest 374 430 40,000  Level Atlanta Center
Fri 01:36:21 PM 36.3411 -82.5489 239° Southwest 374 430 40,000  Level Atlanta Center
Fri 01:37:21 PM 36.2964 -82.6450 240° Southwest 374 430 40,000  Level Atlanta Center
Fri 01:38:21 PM 36.2433 -82.7567 240° Southwest 374 430 40,000  Level Atlanta Center
Fri 01:39:21 PM 36.1903 -82.8631 238° Southwest 374 430 40,000  Level Atlanta Center
Fri 01:40:21 PM 36.1392 -82.9717 240° Southwest 374 430 40,000  Level Atlanta Center
Fri 01:41:21 PM 36.0858 -83.0803 239° Southwest 374 430 40,000  Level Atlanta Center
Fri 01:42:21 PM 36.0325 -83.1861 238° Southwest 369 425 40,000  Level Atlanta Center
Fri 01:43:21 PM 35.9831 -83.2972 241° Southwest 364 419 40,000  Level Atlanta Center
Fri 01:44:21 PM 35.9294 -83.4028 238° Southwest 364 419 40,000  Level Atlanta Center
Fri 01:45:21 PM 35.8756 -83.5108 238° Southwest 369 425 40,000  Level Atlanta Center
Fri 01:46:21 PM 35.8239 -83.6161 239° Southwest 369 425 40,000  Level Atlanta Center
Fri 01:47:21 PM 35.7681 -83.7239 237° Southwest 369 425 40,000  Level Atlanta Center
Fri 01:48:21 PM 35.7139 -83.8317 238° Southwest 369 425 40,000  Level Atlanta Center
Fri 01:49:21 PM 35.6597 -83.9417 239° Southwest 369 425 40,000  Level Atlanta Center
Fri 01:50:21 PM 35.6078 -84.0489 239° Southwest 369 425 40,000  Level Atlanta Center
Fri 01:51:21 PM 35.5533 -84.1561 238° Southwest 369 425 40,000  Level Atlanta Center
Fri 01:52:21 PM 35.4969 -84.2658 238° Southwest 369 425 40,000  Level Atlanta Center
Fri 01:53:21 PM 35.4425 -84.3703 237° Southwest 369 425 40,000  Level Atlanta Center
Fri 01:54:21 PM 35.3878 -84.4794 238° Southwest 369 425 40,000  Level Atlanta Center
Fri 01:55:21 PM 35.3353 -84.5861 239° Southwest 374 430 40,000  Level Atlanta Center
Fri 01:56:21 PM 35.2806 -84.6953 238° Southwest 374 430 40,000  Level Atlanta Center
Fri 01:57:21 PM 35.2236 -84.8039 237° Southwest 379 436 40,000  Level Atlanta Center
Fri 01:58:21 PM 35.1686 -84.9128 238° Southwest 384 442 40,000  Level Atlanta Center
Fri 01:59:21 PM 35.1136 -85.0189 238° Southwest 384 442 40,000  Level Atlanta Center
Fri 02:00:21 PM 35.0583 -85.1272 238° Southwest 384 442 40,000  Level Atlanta Center
Fri 02:01:20 PM 34.9989 -85.2456 239° Southwest 384 442 40,000  Level Atlanta Center
Fri 02:02:21 PM 34.9414 -85.3539 237° Southwest 384 442 40,000  Level Atlanta Center
Fri 02:03:21 PM 34.8756 -85.4567 232° Southwest 384 442 40,000  Level Atlanta Center
Fri 02:04:20 PM 34.8056 -85.5542 229° Southwest 384 442 40,000  Level Atlanta Center
Fri 02:05:21 PM 34.7375 -85.6514 230° Southwest 389 448 40,000  Level Atlanta Center
Fri 02:06:21 PM 34.6672 -85.7486 229° Southwest 389 448 40,000  Level Atlanta Center
Fri 02:07:21 PM 34.5992 -85.8381 227° Southwest 389 448 40,000  Level Atlanta Center
Fri 02:08:21 PM 34.5289 -85.9375 229° Southwest 382 440 40,000  Level Atlanta Center
Fri 02:09:21 PM 34.4606 -86.0317 229° Southwest 382 440 40,000  Level Atlanta Center
Fri 02:10:21 PM 34.3903 -86.1256 228° Southwest 382 440 40,000  Level Atlanta Center
Fri 02:11:21 PM 34.3197 -86.2219 228° Southwest 382 440 40,000  Level Atlanta Center
Fri 02:12:21 PM 34.2489 -86.3206 229° Southwest 382 440 40,000  Level Atlanta Center
Fri 02:13:21 PM 34.1783 -86.4167 228° Southwest 382 440 40,000 -50 Level Atlanta Center
Fri 02:14:21 PM 34.1075 -86.5125 228° Southwest 387 445 39,900 -600 Descending Atlanta Center
Fri 02:15:21 PM 34.0344 -86.6106 228° Southwest 387 445 38,800 -1,250 Descending Atlanta Center
Fri 02:16:21 PM 33.9636 -86.7061 228° Southwest 387 445 37,400 -1,450 Descending Atlanta Center
Fri 02:17:21 PM 33.8947 -86.8042 230° Southwest 387 445 35,900 -1,500 Descending Atlanta Center
Fri 02:18:21 PM 33.8194 -86.9017 227° Southwest 387 445 34,400 -950 Descending Atlanta Center
Fri 02:19:21 PM 33.7481 -87.0017 229° Southwest 392 451 34,000 -200 Descending Atlanta Center
Fri 02:20:21 PM 33.6833 -87.0894 228° Southwest 392 451 34,000  Level Atlanta Center
Fri 02:21:21 PM 33.6100 -87.1867 228° Southwest 397 457 34,000 -526 Level Atlanta Center
Fri 02:23:12 PM 33.4631 -87.3842 228° Southwest 413 475 32,500 -1,053 Descending Memphis Center
Fri 02:24:12 PM 33.3861 -87.4861 228° Southwest 413 475 31,000 -1,250 Descending Memphis Center
Fri 02:25:12 PM 33.3092 -87.5906 229° Southwest 408 470 30,000 -500 Descending Memphis Center
Fri 02:26:12 PM 33.2319 -87.6925 228° Southwest 414 476 30,000  Level Memphis Center
Fri 02:27:12 PM 33.1547 -87.7939 228° Southwest 420 483 30,000  Level Memphis Center
Fri 02:28:12 PM 33.0756 -87.8956 227° Southwest 420 483 30,000  Level Memphis Center
Fri 02:29:12 PM 32.9981 -88.0017 229° Southwest 420 483 30,000 -100 Level Memphis Center
Fri 02:30:12 PM 32.9289 -88.0925 228° Southwest 420 483 29,800 -900 Descending Memphis Center
Fri 02:31:12 PM 32.8494 -88.1986 228° Southwest 425 489 28,200 -1,650 Descending Memphis Center
Fri 02:32:12 PM 32.7739 -88.2967 228° Southwest 420 483 26,500 -1,650 Descending Memphis Center
Fri 02:33:12 PM 32.6981 -88.3947 227° Southwest 420 483 24,900 -1,600 Descending Memphis Center
Fri 02:34:12 PM 32.6244 -88.4900 227° Southwest 413 475 23,300 -1,550 Descending Memphis Center
Fri 02:35:12 PM 32.5506 -88.5853 227° Southwest 402 463 21,800 -1,550 Descending Memphis Center
Fri 02:36:12 PM 32.4769 -88.6803 227° Southwest 396 456 20,200 -1,650 Descending Memphis Center
Fri 02:37:12 PM 32.4072 -88.7725 228° Southwest 390 449 18,500 -1,550 Descending Memphis Center
Fri 02:38:12 PM 32.3728 -88.8767 249° West 358 412 17,100 -1,500 Descending Memphis Center
Fri 02:39:12 PM 32.3681 -88.9922 267° West 350 403 15,500 -1,600 Descending Memphis Center
Fri 02:40:12 PM 32.3650 -89.1056 268° West 347 399 13,900 -1,650 Descending Memphis Center
Fri 02:41:12 PM 32.3597 -89.2161 267° West 352 405 12,200 -1,450 Descending Memphis Center
Fri 02:42:12 PM 32.3522 -89.3219 265° West 340 391 11,000 -600 Descending Memphis Center
Fri 02:43:12 PM 32.3447 -89.4228 265° West 328 377 11,000 -450 Level Memphis Center
Fri 02:44:12 PM 32.3289 -89.5214 259° West 321 369 10,100 -1,700 Descending Memphis Center
Fri 02:45:12 PM 32.3169 -89.6125 261° West 303 349 7,600 -2,700 Descending Memphis Center
Fri 02:46:12 PM 32.3047 -89.7058 261° West 293 337 4,700 -2,200 Descending Memphis Center
Fri 02:47:12 PM 32.3053 -89.7944 270° West 285 328 3,200 -900 Descending Memphis Center
Fri 02:48:12 PM 32.3097 -89.8831 273° West 275 316 2,900 -500 Descending Memphis Center
Fri 02:49:12 PM 32.3017 -89.9617 263° West 264 304 2,200 -600 Descending Memphis Center
Fri 02:50:12 PM 32.2831 -90.0231 250° West 235 270 1,700 -600 Descending Memphis Center
Fri 02:51:12 PM 32.2811 -90.0600 266° West 190 219 1,000 -550 Descending Memphis Center
Fri 02:52:12 PM 32.2939 -90.0894 297° West 116 133 600 -400 Descending Memphis Center

Login

Don't have an account? Register now (free) for customized features, flight alerts, and more!